EWG524 EDDH-LEAL
Flight info
| Callsign | EWG524 |
|---|---|
| Flight time | N/A |
| Altitude | 38000 |
| Route | WSN5G/33 WSN N125 ONTAZ DCT WOODY/N0434F370 N872 NIK/N0437F380 DCT CIV/N0434F370 N872 MEDIL DCT KOVIN DCT DUCRA UM728 RESMI UN857 DISAK DCT DIRMO DCT GUERE DCT AGN DCT ANETO DCT POSSY DCT XIMPE DCT RIMES DCT SAURA DCT TATOS N860 VLC |
| Aircraft | A320/M-SDE3FGHIRWY/LB1 |
Departure
| Time | 2026-04-22 18:21 |
|---|---|
| Airport | Hamburg Helmut Schmidt Airport (EDDH) |
Arrival
| Time | N/A |
|---|---|
| Airport | Alicante-Elche Miguel Hernández Airport (LEAL) |
| Time | Latitude | Longitude | Altitude | Speed | Heading |
|---|---|---|---|---|---|
| 2026-04-22 17:54 | 53.62651 | 10.00377 | 46 ft | 0 kts | 62° |
| 2026-04-22 18:13 | 53.62649 | 10.00373 | 50 ft | 2 kts | 62° |
| 2026-04-22 18:13 | 53.62641 | 10.00345 | 49 ft | 3 kts | 67° |
| 2026-04-22 18:14 | 53.62634 | 10.00313 | 48 ft | 3 kts | 77° |
| 2026-04-22 18:14 | 53.62631 | 10.00281 | 50 ft | 3 kts | 98° |
| 2026-04-22 18:14 | 53.62636 | 10.00254 | 50 ft | 2 kts | 142° |
| 2026-04-22 18:14 | 53.62641 | 10.00249 | 46 ft | 0 kts | 152° |
| 2026-04-22 18:18 | 53.62615 | 10.00265 | 47 ft | 6 kts | 165° |
| 2026-04-22 18:18 | 53.62583 | 10.00242 | 50 ft | 5 kts | 229° |
| 2026-04-22 18:18 | 53.62566 | 10.00192 | 49 ft | 5 kts | 241° |
| 2026-04-22 18:19 | 53.62547 | 10.00122 | 45 ft | 9 kts | 249° |
| 2026-04-22 18:19 | 53.62561 | 10.00012 | 45 ft | 11 kts | 314° |
| 2026-04-22 18:19 | 53.62602 | 9.99971 | 47 ft | 0 kts | 332° |
| 2026-04-22 18:20 | 53.62700 | 9.99885 | 47 ft | 48 kts | 332° |
| 2026-04-22 18:20 | 53.63204 | 9.99448 | 48 ft | 112 kts | 332° |
| 2026-04-22 18:20 | 53.64054 | 9.98697 | 88 ft | 159 kts | 332° |
| 2026-04-22 18:21 | 53.65006 | 9.97899 | 813 ft | 151 kts | 332° |
| 2026-04-22 18:21 | 53.65960 | 9.97111 | 1507 ft | 154 kts | 333° |
| 2026-04-22 18:21 | 53.66969 | 9.96277 | 1967 ft | 171 kts | 333° |
| 2026-04-22 18:21 | 53.68103 | 9.95303 | 2311 ft | 193 kts | 333° |
| 2026-04-22 18:22 | 53.69328 | 9.94244 | 2913 ft | 201 kts | 332° |
| 2026-04-22 18:22 | 53.70580 | 9.93128 | 3646 ft | 206 kts | 327° |
| 2026-04-22 18:22 | 53.71473 | 9.91260 | 4358 ft | 214 kts | 288° |
| 2026-04-22 18:22 | 53.71483 | 9.88620 | 4797 ft | 242 kts | 261° |
| 2026-04-22 18:23 | 53.71014 | 9.85738 | 5304 ft | 264 kts | 255° |
| 2026-04-22 18:23 | 53.70385 | 9.82767 | 6093 ft | 272 kts | 252° |
| 2026-04-22 18:23 | 53.69712 | 9.79748 | 6957 ft | 277 kts | 252° |
| 2026-04-22 18:24 | 53.68374 | 9.73532 | 8645 ft | 286 kts | 253° |
| 2026-04-22 18:24 | 53.67719 | 9.70346 | 9494 ft | 290 kts | 254° |
| 2026-04-22 18:24 | 53.66406 | 9.63791 | 10343 ft | 298 kts | 254° |
| 2026-04-22 18:25 | 53.65721 | 9.60329 | 10529 ft | 324 kts | 252° |
| 2026-04-22 18:25 | 53.64727 | 9.56793 | 11004 ft | 341 kts | 240° |
| 2026-04-22 18:25 | 53.63357 | 9.53482 | 11709 ft | 348 kts | 235° |
| 2026-04-22 18:26 | 53.60485 | 9.46801 | 13202 ft | 357 kts | 235° |
| 2026-04-22 18:26 | 53.59019 | 9.43395 | 13942 ft | 361 kts | 235° |
| 2026-04-22 18:26 | 53.57533 | 9.39954 | 14611 ft | 366 kts | 234° |
| 2026-04-22 18:26 | 53.56030 | 9.36478 | 15275 ft | 369 kts | 234° |
| 2026-04-22 18:27 | 53.54517 | 9.32972 | 15917 ft | 373 kts | 234° |
| 2026-04-22 18:27 | 53.52985 | 9.29423 | 16562 ft | 377 kts | 234° |
| 2026-04-22 18:27 | 53.51440 | 9.25845 | 17211 ft | 380 kts | 234° |
| 2026-04-22 18:27 | 53.49879 | 9.22235 | 17857 ft | 383 kts | 234° |
| 2026-04-22 18:28 | 53.48304 | 9.18599 | 18505 ft | 387 kts | 234° |
| 2026-04-22 18:28 | 53.46715 | 9.14938 | 19082 ft | 390 kts | 234° |
| 2026-04-22 18:28 | 53.45111 | 9.11251 | 19655 ft | 392 kts | 233° |
| 2026-04-22 18:28 | 53.43497 | 9.07547 | 20238 ft | 395 kts | 233° |
| 2026-04-22 18:29 | 53.41871 | 9.03816 | 20814 ft | 398 kts | 233° |
| 2026-04-22 18:29 | 53.40232 | 9.00064 | 21399 ft | 400 kts | 233° |
| 2026-04-22 18:29 | 53.38578 | 8.96286 | 21985 ft | 403 kts | 233° |
| 2026-04-22 18:29 | 53.36916 | 8.92497 | 22560 ft | 405 kts | 233° |
| 2026-04-22 18:30 | 53.35298 | 8.88615 | 23116 ft | 409 kts | 238° |
| 2026-04-22 18:30 | 53.33025 | 8.79825 | 24145 ft | 416 kts | 249° |
| 2026-04-22 18:30 | 53.32026 | 8.75271 | 24561 ft | 419 kts | 249° |
| 2026-04-22 18:31 | 53.31009 | 8.70675 | 24934 ft | 423 kts | 249° |
| 2026-04-22 18:31 | 53.29982 | 8.66046 | 25322 ft | 427 kts | 249° |
| 2026-04-22 18:31 | 53.28950 | 8.61377 | 25706 ft | 430 kts | 249° |
| 2026-04-22 18:31 | 53.27913 | 8.56658 | 26091 ft | 433 kts | 249° |
| 2026-04-22 18:32 | 53.27226 | 8.53522 | 26350 ft | 435 kts | 249° |
| 2026-04-22 18:32 | 53.26189 | 8.48762 | 26712 ft | 438 kts | 249° |
| 2026-04-22 18:32 | 53.25206 | 8.43926 | 27072 ft | 441 kts | 251° |
| 2026-04-22 18:32 | 53.24277 | 8.39025 | 27442 ft | 444 kts | 252° |
| 2026-04-22 18:33 | 53.23374 | 8.34072 | 27785 ft | 447 kts | 252° |
| 2026-04-22 18:33 | 53.22473 | 8.29083 | 28132 ft | 450 kts | 252° |
| 2026-04-22 18:33 | 53.21562 | 8.24073 | 28478 ft | 453 kts | 251° |
| 2026-04-22 18:33 | 53.20626 | 8.19030 | 28813 ft | 456 kts | 251° |
| 2026-04-22 18:34 | 53.19669 | 8.13982 | 29183 ft | 457 kts | 251° |
| 2026-04-22 18:34 | 53.18697 | 8.08923 | 29516 ft | 460 kts | 251° |
| 2026-04-22 18:34 | 53.17722 | 8.03832 | 29845 ft | 462 kts | 251° |
| 2026-04-22 18:34 | 53.16750 | 7.98710 | 30161 ft | 465 kts | 251° |
| 2026-04-22 18:35 | 53.15778 | 7.93561 | 30454 ft | 467 kts | 251° |
| 2026-04-22 18:35 | 53.14799 | 7.88384 | 30702 ft | 469 kts | 251° |
| 2026-04-22 18:35 | 53.13815 | 7.83195 | 30934 ft | 472 kts | 251° |
| 2026-04-22 18:35 | 53.12820 | 7.77973 | 31174 ft | 474 kts | 251° |
| 2026-04-22 18:36 | 53.11818 | 7.72731 | 31404 ft | 476 kts | 251° |
| 2026-04-22 18:36 | 53.10809 | 7.67471 | 31622 ft | 478 kts | 251° |
| 2026-04-22 18:36 | 53.09793 | 7.62194 | 31853 ft | 479 kts | 251° |
| 2026-04-22 18:36 | 53.08774 | 7.56922 | 32212 ft | 478 kts | 251° |
| 2026-04-22 18:37 | 53.07756 | 7.51681 | 32523 ft | 477 kts | 251° |
| 2026-04-22 18:37 | 53.06732 | 7.46433 | 32836 ft | 477 kts | 251° |
| 2026-04-22 18:37 | 53.05710 | 7.41187 | 33136 ft | 477 kts | 251° |
| 2026-04-22 18:37 | 53.04686 | 7.35952 | 33431 ft | 477 kts | 251° |
| 2026-04-22 18:38 | 53.03658 | 7.30705 | 33739 ft | 477 kts | 251° |
| 2026-04-22 18:38 | 53.02536 | 7.25532 | 34066 ft | 476 kts | 245° |
| 2026-04-22 18:38 | 53.01018 | 7.20684 | 34450 ft | 472 kts | 237° |
| 2026-04-22 18:39 | 52.96961 | 7.12181 | 35000 ft | 469 kts | 227° |
| 2026-04-22 18:39 | 52.94791 | 7.08141 | 35241 ft | 469 kts | 227° |
| 2026-04-22 18:39 | 52.92622 | 7.04106 | 35485 ft | 469 kts | 227° |
| 2026-04-22 18:39 | 52.90450 | 7.00078 | 35717 ft | 469 kts | 227° |
| 2026-04-22 18:40 | 52.88279 | 6.96055 | 35943 ft | 469 kts | 227° |
| 2026-04-22 18:40 | 52.86110 | 6.92031 | 36164 ft | 468 kts | 227° |